createdAt,value
2019-05-25T00:01:09.243Z,15.73
2019-05-25T00:03:38.751Z,15.69
2019-05-25T00:06:08.358Z,15.68
2019-05-25T00:08:37.815Z,15.79
2019-05-25T00:11:07.368Z,15.75
2019-05-25T00:13:37.061Z,15.69
2019-05-25T00:16:06.547Z,15.62
2019-05-25T00:18:36.050Z,15.59
2019-05-25T00:21:05.631Z,15.53
2019-05-25T00:23:35.179Z,15.44
2019-05-25T00:26:04.683Z,15.37
2019-05-25T00:28:34.271Z,15.33
2019-05-25T00:31:03.743Z,15.29
2019-05-25T00:33:33.251Z,15.27
2019-05-25T00:36:02.731Z,15.25
2019-05-25T00:38:32.201Z,15.18
2019-05-25T00:41:02.006Z,15.15
2019-05-25T00:43:31.482Z,15.13
2019-05-25T00:46:00.966Z,15.07
2019-05-25T00:48:30.517Z,15.04
2019-05-25T00:50:59.986Z,15.00
2019-05-25T00:53:29.453Z,14.97
2019-05-25T00:55:58.961Z,14.93
2019-05-25T00:58:28.423Z,14.96
2019-05-25T01:00:58.063Z,14.93
2019-05-25T01:03:27.574Z,14.85
2019-05-25T01:05:57.057Z,14.83
2019-05-25T01:08:26.518Z,14.82
2019-05-25T01:10:56.026Z,14.80
2019-05-25T01:13:25.799Z,14.81
2019-05-25T01:15:55.478Z,14.83
2019-05-25T01:18:25.178Z,14.80
2019-05-25T01:20:54.658Z,14.73
2019-05-25T01:23:24.156Z,14.74
2019-05-25T01:25:53.722Z,14.67
2019-05-25T01:28:23.331Z,14.62
2019-05-25T01:30:52.803Z,14.59
2019-05-25T01:33:22.313Z,14.54
2019-05-25T01:35:51.779Z,14.47
2019-05-25T01:38:21.260Z,14.44
2019-05-25T01:40:50.785Z,14.40
2019-05-25T01:43:20.256Z,14.32
2019-05-25T01:45:49.761Z,14.30
2019-05-25T01:48:19.314Z,14.23
2019-05-25T01:50:48.877Z,14.23
2019-05-25T01:53:18.346Z,14.17
2019-05-25T01:55:47.863Z,14.14
2019-05-25T01:58:17.337Z,14.11
2019-05-25T02:00:46.805Z,13.98
2019-05-25T02:03:16.405Z,13.93
2019-05-25T02:05:45.988Z,13.97
2019-05-25T02:08:15.452Z,13.95
2019-05-25T02:10:45.052Z,13.91
2019-05-25T02:13:14.531Z,13.87
2019-05-25T02:15:43.996Z,13.86
2019-05-25T02:18:13.493Z,13.83
2019-05-25T02:20:42.969Z,13.75
2019-05-25T02:23:12.463Z,13.67
2019-05-25T02:25:41.975Z,13.64
2019-05-25T02:28:11.473Z,13.62
2019-05-25T02:30:40.943Z,13.61
2019-05-25T02:33:10.521Z,13.66
2019-05-25T02:35:40.087Z,13.66
2019-05-25T02:38:09.600Z,13.69
2019-05-25T02:40:39.138Z,13.63
2019-05-25T02:43:08.616Z,13.55
2019-05-25T02:45:38.108Z,13.47
2019-05-25T02:48:07.671Z,13.48
2019-05-25T02:50:37.143Z,13.49
2019-05-25T02:53:06.850Z,13.49
2019-05-25T02:55:36.435Z,13.42
2019-05-25T02:58:05.906Z,13.45
2019-05-25T03:00:35.843Z,13.39
2019-05-25T03:03:06.198Z,13.30
2019-05-25T03:05:35.696Z,13.29
2019-05-25T03:08:05.201Z,13.21
2019-05-25T03:10:34.657Z,13.20
2019-05-25T03:13:04.167Z,13.23
2019-05-25T03:15:33.707Z,13.27
2019-05-25T03:18:03.240Z,13.24
2019-05-25T03:20:33.049Z,13.21
2019-05-25T03:23:02.765Z,13.23
2019-05-25T03:25:32.311Z,13.25
2019-05-25T03:28:01.805Z,13.21
2019-05-25T03:30:34.577Z,13.23
2019-05-25T03:33:04.043Z,13.15
2019-05-25T03:35:33.863Z,13.11
2019-05-25T03:38:03.386Z,13.16
2019-05-25T03:40:32.919Z,13.12
2019-05-25T03:43:02.404Z,13.16
2019-05-25T03:45:31.900Z,13.19
2019-05-25T03:48:01.368Z,13.21
2019-05-25T03:50:30.843Z,13.22
2019-05-25T03:53:00.341Z,13.25
2019-05-25T03:55:29.817Z,13.32
2019-05-25T03:57:59.985Z,13.32
2019-05-25T04:00:35.234Z,13.36
2019-05-25T04:03:05.299Z,13.45
2019-05-25T04:05:34.996Z,13.48
2019-05-25T04:08:04.503Z,13.50
2019-05-25T04:10:33.975Z,13.55
2019-05-25T04:13:03.445Z,13.60
2019-05-25T04:15:32.966Z,13.65
2019-05-25T04:18:02.592Z,13.68
2019-05-25T04:20:32.165Z,13.64
2019-05-25T04:23:01.767Z,13.62
2019-05-25T04:25:31.253Z,13.64
2019-05-25T04:28:00.740Z,13.64
2019-05-25T04:30:30.270Z,13.67
2019-05-25T04:32:59.835Z,13.70
2019-05-25T04:35:29.302Z,13.75
2019-05-25T04:37:58.895Z,13.83
2019-05-25T04:40:28.369Z,13.96
2019-05-25T04:42:57.856Z,14.05
2019-05-25T04:45:27.427Z,13.99
2019-05-25T04:47:56.767Z,14.08
2019-05-25T04:50:26.334Z,14.13
2019-05-25T04:52:55.938Z,14.17
2019-05-25T04:55:25.470Z,14.21
2019-05-25T04:57:54.935Z,14.26
2019-05-25T05:00:24.563Z,14.28
2019-05-25T05:02:54.134Z,14.32
2019-05-25T05:05:23.606Z,14.35
2019-05-25T05:07:53.123Z,14.39
2019-05-25T05:10:22.646Z,14.44
2019-05-25T05:12:52.241Z,14.52
2019-05-25T05:15:21.759Z,14.61
2019-05-25T05:17:51.240Z,14.70
2019-05-25T05:20:21.058Z,14.77
2019-05-25T05:22:50.573Z,14.81
2019-05-25T05:25:20.045Z,14.90
2019-05-25T05:27:49.512Z,14.92
2019-05-25T05:30:29.543Z,14.95
2019-05-25T05:32:59.211Z,15.03
2019-05-25T05:35:28.680Z,15.12
2019-05-25T05:37:58.183Z,15.20
2019-05-25T05:40:27.671Z,15.22
2019-05-25T05:42:58.627Z,15.26
2019-05-25T05:45:28.116Z,15.28
2019-05-25T05:47:59.433Z,15.35
2019-05-25T05:50:28.947Z,15.36
2019-05-25T05:52:58.416Z,15.45
2019-05-25T05:55:32.417Z,15.57
2019-05-25T05:58:02.696Z,15.61
2019-05-25T06:00:32.276Z,15.71
2019-05-25T06:03:01.750Z,15.88
2019-05-25T06:05:31.255Z,15.98
2019-05-25T06:08:00.775Z,16.02
2019-05-25T06:10:30.282Z,16.06
2019-05-25T06:12:59.788Z,16.11
2019-05-25T06:15:29.366Z,16.20
2019-05-25T06:17:58.809Z,16.28
2019-05-25T06:20:28.213Z,16.34
2019-05-25T06:22:57.733Z,16.41
2019-05-25T06:25:27.238Z,16.52
2019-05-25T06:27:56.784Z,16.60
2019-05-25T06:30:26.453Z,16.68
2019-05-25T06:32:56.079Z,16.77
2019-05-25T06:35:25.564Z,16.93
2019-05-25T06:37:55.065Z,16.95
2019-05-25T06:40:24.572Z,17.03
2019-05-25T06:42:54.048Z,17.13
2019-05-25T06:45:23.524Z,17.23
2019-05-25T06:47:53.017Z,17.36
2019-05-25T06:50:22.404Z,17.52
2019-05-25T06:52:51.962Z,17.58
2019-05-25T06:55:21.444Z,17.70
2019-05-25T06:57:51.114Z,17.81
2019-05-25T07:00:21.927Z,17.89
2019-05-25T07:02:51.428Z,18.00
2019-05-25T07:05:20.914Z,18.16
2019-05-25T07:07:53.846Z,18.33
2019-05-25T07:10:21.716Z,18.56
2019-05-25T07:12:51.172Z,18.64
2019-05-25T07:15:20.652Z,18.73
2019-05-25T07:17:50.168Z,18.84
2019-05-25T07:20:19.634Z,19.01
2019-05-25T07:22:49.112Z,19.21
2019-05-25T07:25:20.622Z,19.36
2019-05-25T07:27:58.769Z,19.48
2019-05-25T07:30:21.600Z,19.60
2019-05-25T07:32:51.104Z,19.74
2019-05-25T07:35:20.593Z,19.86
2019-05-25T07:37:50.073Z,20.02
2019-05-25T07:40:19.920Z,20.15
2019-05-25T07:42:49.412Z,20.26
2019-05-25T07:45:18.891Z,20.40
2019-05-25T07:47:48.472Z,20.47
2019-05-25T07:50:18.808Z,20.49
2019-05-25T07:52:48.268Z,20.61
2019-05-25T07:55:17.768Z,20.74
2019-05-25T07:57:47.241Z,20.90
2019-05-25T08:00:17.704Z,20.99
2019-05-25T08:02:47.212Z,21.07
2019-05-25T08:05:16.790Z,21.19
2019-05-25T08:07:46.263Z,21.36
2019-05-25T08:10:15.866Z,21.58
2019-05-25T08:12:45.643Z,21.69
2019-05-25T08:15:15.120Z,21.77
2019-05-25T08:17:44.617Z,21.86
2019-05-25T08:20:14.305Z,21.95
2019-05-25T08:22:43.992Z,22.09
2019-05-25T08:25:14.598Z,22.14
2019-05-25T08:27:44.177Z,22.24
2019-05-25T08:30:13.653Z,22.33
2019-05-25T08:32:43.157Z,22.50
2019-05-25T08:35:12.555Z,22.65
2019-05-25T08:37:42.049Z,22.73
2019-05-25T08:40:11.775Z,22.79
2019-05-25T08:42:41.167Z,22.92
2019-05-25T08:45:10.821Z,23.07
2019-05-25T08:47:40.257Z,23.25
2019-05-25T08:50:09.825Z,23.50
2019-05-25T08:52:39.293Z,23.71
2019-05-25T08:55:08.768Z,23.88
2019-05-25T08:57:38.105Z,24.13
2019-05-25T09:00:07.671Z,24.27
2019-05-25T09:02:37.188Z,24.43
2019-05-25T09:05:08.205Z,24.54
2019-05-25T09:07:37.655Z,24.71
2019-05-25T09:10:09.926Z,24.64
2019-05-25T09:12:39.411Z,24.57
2019-05-25T09:15:08.892Z,24.56
2019-05-25T09:17:38.304Z,24.71
2019-05-25T09:20:10.876Z,24.68
2019-05-25T09:22:40.589Z,24.71
2019-05-25T09:25:10.072Z,24.77
2019-05-25T09:27:39.547Z,24.92
2019-05-25T09:30:09.419Z,25.02
2019-05-25T09:32:39.048Z,25.14
2019-05-25T09:35:08.446Z,25.49
2019-05-25T09:37:37.788Z,25.80
2019-05-25T09:40:07.497Z,26.08
2019-05-25T09:42:37.019Z,26.12
2019-05-25T09:45:07.375Z,26.35
2019-05-25T09:47:36.867Z,26.63
2019-05-25T09:50:09.019Z,27.18
2019-05-25T09:52:38.507Z,27.51
2019-05-25T09:55:08.559Z,27.74
2019-05-25T09:57:41.341Z,28.30
2019-05-25T10:00:15.273Z,28.45
2019-05-25T10:02:44.870Z,28.70
2019-05-25T10:05:14.697Z,28.79
2019-05-25T10:07:44.309Z,28.74
2019-05-25T10:10:14.067Z,28.55
2019-05-25T10:12:43.542Z,28.66
2019-05-25T10:15:13.128Z,28.73
2019-05-25T10:17:42.509Z,28.89
2019-05-25T10:20:12.190Z,28.61
2019-05-25T10:22:41.684Z,28.71
2019-05-25T10:25:11.418Z,29.39
2019-05-25T10:27:40.907Z,29.89
2019-05-25T10:30:11.440Z,30.10
2019-05-25T10:32:40.837Z,30.16
2019-05-25T10:35:10.330Z,30.38
2019-05-25T10:37:39.794Z,30.02
2019-05-25T10:40:09.266Z,29.91
2019-05-25T10:42:38.646Z,30.17
2019-05-25T10:45:08.609Z,29.65
2019-05-25T10:47:38.119Z,29.90
2019-05-25T10:50:10.555Z,30.31
2019-05-25T10:52:40.028Z,30.79
2019-05-25T10:55:09.931Z,31.50
2019-05-25T10:57:39.615Z,31.22
2019-05-25T11:00:10.108Z,31.28
2019-05-25T11:02:39.575Z,30.86
2019-05-25T11:05:09.606Z,30.48
2019-05-25T11:07:39.262Z,30.56
2019-05-25T11:10:09.854Z,30.40
2019-05-25T11:12:39.327Z,30.05
2019-05-25T11:15:09.049Z,29.71
2019-05-25T11:17:38.612Z,28.98
2019-05-25T11:20:09.160Z,28.59
2019-05-25T11:22:38.659Z,28.54
2019-05-25T11:25:08.723Z,28.52
2019-05-25T11:27:38.202Z,28.52
2019-05-25T11:30:10.732Z,28.66
2019-05-25T11:32:40.239Z,28.77
2019-05-25T11:35:10.532Z,28.71
2019-05-25T11:37:40.064Z,28.55
2019-05-25T11:40:09.747Z,28.41
2019-05-25T11:42:39.247Z,28.31
2019-05-25T11:45:08.960Z,28.19
2019-05-25T11:47:38.361Z,28.23
2019-05-25T11:50:10.935Z,28.33
2019-05-25T11:52:40.729Z,28.40
2019-05-25T11:55:10.346Z,28.39
2019-05-25T11:57:39.824Z,29.07
2019-05-25T12:00:24.267Z,29.97
2019-05-25T12:02:51.299Z,30.95
2019-05-25T12:05:20.803Z,31.83
2019-05-25T12:07:50.269Z,32.95
2019-05-25T12:10:20.238Z,33.97
2019-05-25T12:12:49.841Z,34.79
2019-05-25T12:15:19.308Z,35.33
2019-05-25T12:17:48.793Z,36.12
2019-05-25T12:20:19.313Z,36.64
2019-05-25T12:22:48.775Z,36.79
2019-05-25T12:25:18.241Z,36.95
2019-05-25T12:27:49.230Z,36.65
2019-05-25T12:30:19.707Z,36.65
2019-05-25T12:32:49.216Z,36.70
2019-05-25T12:35:19.195Z,37.01
2019-05-25T12:37:48.759Z,36.52
2019-05-25T12:40:18.233Z,36.67
2019-05-25T12:42:47.776Z,35.92
2019-05-25T12:45:17.491Z,34.82
2019-05-25T12:47:46.971Z,34.16
2019-05-25T12:50:16.481Z,33.83
2019-05-25T12:52:45.984Z,33.57
2019-05-25T12:55:15.444Z,33.04
2019-05-25T12:57:44.948Z,32.68
2019-05-25T13:00:16.346Z,33.01
2019-05-25T13:02:45.936Z,34.03
2019-05-25T13:05:15.563Z,36.55
2019-05-25T13:07:45.041Z,38.20
2019-05-25T13:10:14.517Z,37.98
2019-05-25T13:12:44.121Z,37.23
2019-05-25T13:15:13.724Z,37.03
2019-05-25T13:17:43.402Z,37.00
2019-05-25T13:20:12.916Z,36.81
2019-05-25T13:22:42.395Z,36.90
2019-05-25T13:25:11.876Z,37.77
2019-05-25T13:27:41.384Z,38.45
2019-05-25T13:30:10.860Z,39.31
2019-05-25T13:32:40.554Z,38.42
2019-05-25T13:35:10.314Z,38.03
2019-05-25T13:37:39.858Z,37.36
2019-05-25T13:40:10.141Z,36.27
2019-05-25T13:42:39.641Z,34.45
2019-05-25T13:45:09.114Z,33.95
2019-05-25T13:47:38.655Z,33.29
2019-05-25T13:50:12.303Z,31.88
2019-05-25T13:52:41.806Z,30.82
2019-05-25T13:55:12.175Z,29.98
2019-05-25T13:57:41.872Z,29.39
2019-05-25T14:00:12.169Z,28.76
2019-05-25T14:02:41.719Z,28.46
2019-05-25T14:05:11.627Z,28.06
2019-05-25T14:07:41.123Z,27.95
2019-05-25T14:10:10.663Z,27.88
2019-05-25T14:12:40.166Z,27.70
2019-05-25T14:15:10.521Z,27.35
2019-05-25T14:17:40.036Z,27.02
2019-05-25T14:20:10.251Z,26.80
2019-05-25T14:22:39.729Z,26.67
2019-05-25T14:25:09.205Z,26.73
2019-05-25T14:27:38.774Z,26.67
2019-05-25T14:30:10.161Z,26.54
2019-05-25T14:32:39.953Z,26.41
2019-05-25T14:35:10.078Z,26.40
2019-05-25T14:37:41.517Z,26.47
2019-05-25T14:40:11.853Z,26.29
2019-05-25T14:42:41.703Z,26.10
2019-05-25T14:45:11.230Z,25.83
2019-05-25T14:47:41.398Z,25.48
2019-05-25T14:50:11.503Z,25.36
2019-05-25T14:52:43.431Z,25.32
2019-05-25T14:55:12.569Z,25.06
2019-05-25T14:57:42.557Z,24.88
2019-05-25T15:00:12.946Z,24.75
2019-05-25T15:02:42.832Z,24.72
2019-05-25T15:05:12.453Z,24.74
2019-05-25T15:07:42.128Z,24.70
2019-05-25T15:10:11.608Z,24.64
2019-05-25T15:12:41.072Z,24.48
2019-05-25T15:15:10.773Z,23.92
2019-05-25T15:17:42.981Z,23.48
2019-05-25T15:20:11.447Z,23.32
2019-05-25T15:22:40.961Z,23.01
2019-05-25T15:25:11.366Z,22.81
2019-05-25T15:27:40.841Z,22.56
2019-05-25T15:30:10.860Z,22.43
2019-05-25T15:32:40.334Z,22.23
2019-05-25T15:35:09.824Z,21.92
2019-05-25T15:37:39.300Z,21.74
2019-05-25T15:40:10.746Z,21.56
2019-05-25T15:42:40.261Z,21.30
2019-05-25T15:45:10.545Z,21.25
2019-05-25T15:47:40.035Z,21.36
2019-05-25T15:50:11.369Z,21.38
2019-05-25T15:52:40.866Z,21.23
2019-05-25T15:55:10.549Z,21.08
2019-05-25T15:57:40.143Z,20.96
2019-05-25T16:00:13.943Z,20.77
2019-05-25T16:02:43.405Z,20.80
2019-05-25T16:05:12.955Z,20.92
2019-05-25T16:07:46.806Z,21.03
2019-05-25T16:10:16.501Z,21.18
2019-05-25T16:12:46.075Z,21.21
2019-05-25T16:15:20.236Z,21.20
2019-05-25T16:17:49.788Z,21.31
2019-05-25T16:20:22.613Z,21.36
2019-05-25T16:22:52.290Z,21.43
2019-05-25T16:25:21.963Z,21.29
2019-05-25T16:27:51.494Z,21.22
2019-05-25T16:30:21.119Z,21.20
2019-05-25T16:35:21.987Z,21.40
2019-05-25T16:37:51.580Z,21.48
2019-05-25T16:40:21.240Z,21.47
2019-05-25T16:42:50.815Z,21.52
2019-05-25T16:45:20.560Z,21.58
2019-05-25T16:47:50.062Z,21.73
2019-05-25T16:50:19.537Z,21.87
2019-05-25T16:52:49.061Z,21.99
2019-05-25T16:55:18.736Z,21.87
2019-05-25T16:57:48.194Z,21.97
2019-05-25T17:00:29.341Z,22.05
2019-05-25T17:02:59.432Z,22.25
2019-05-25T17:05:29.190Z,22.37
2019-05-25T17:07:58.687Z,22.59
2019-05-25T17:10:28.688Z,22.76
2019-05-25T17:12:58.147Z,22.91
2019-05-25T17:15:27.659Z,23.00
2019-05-25T17:17:57.137Z,23.20
2019-05-25T17:20:26.716Z,23.12
2019-05-25T17:22:56.323Z,22.87
2019-05-25T17:25:25.786Z,22.71
2019-05-25T17:27:55.405Z,22.74
2019-05-25T17:30:44.056Z,22.85
2019-05-25T17:33:13.520Z,22.88
2019-05-25T17:35:43.496Z,22.85
2019-05-25T17:38:13.011Z,22.75
2019-05-25T17:40:42.507Z,22.63
2019-05-25T17:43:12.064Z,22.49
2019-05-25T17:45:41.561Z,22.21
2019-05-25T17:48:11.041Z,22.04
2019-05-25T17:50:40.516Z,21.93
2019-05-25T17:53:10.014Z,21.80
2019-05-25T17:55:39.479Z,21.72
2019-05-25T17:58:09.014Z,21.63
2019-05-25T18:00:47.626Z,21.50
2019-05-25T18:03:17.487Z,21.37
2019-05-25T18:05:47.709Z,21.24
2019-05-25T18:08:17.295Z,21.22
2019-05-25T18:10:53.439Z,21.14
2019-05-25T18:13:18.486Z,21.01
2019-05-25T18:15:48.003Z,20.99
2019-05-25T18:18:17.866Z,20.92
2019-05-25T18:20:47.447Z,20.83
2019-05-25T18:23:17.248Z,20.72
2019-05-25T18:25:46.723Z,20.60
2019-05-25T18:28:16.345Z,20.52
2019-05-25T18:30:45.844Z,20.46
2019-05-25T18:33:15.686Z,20.46
2019-05-25T18:35:45.179Z,20.42
2019-05-25T18:38:14.699Z,20.35
2019-05-25T18:40:44.319Z,20.25
2019-05-25T18:43:13.908Z,20.11
2019-05-25T18:46:02.463Z,19.96
2019-05-25T18:48:34.379Z,19.81
2019-05-25T18:51:03.207Z,19.77
2019-05-25T18:53:32.705Z,19.74
2019-05-25T18:56:02.172Z,19.70
2019-05-25T18:58:31.657Z,19.74
2019-05-25T19:01:01.155Z,19.52
2019-05-25T19:03:30.650Z,19.51
2019-05-25T19:06:00.124Z,19.40
2019-05-25T19:08:29.705Z,19.27
2019-05-25T19:10:59.168Z,19.18
2019-05-25T19:13:28.654Z,19.12
2019-05-25T19:15:58.155Z,19.13
2019-05-25T19:18:27.632Z,19.11
2019-05-25T19:20:57.189Z,19.17
2019-05-25T19:23:26.695Z,19.19
2019-05-25T19:25:56.155Z,19.20
2019-05-25T19:28:25.954Z,19.21
2019-05-25T19:30:55.464Z,19.17
2019-05-25T19:33:25.019Z,19.04
2019-05-25T19:35:54.701Z,19.00
2019-05-25T19:38:24.380Z,19.07
2019-05-25T19:40:53.840Z,19.03
2019-05-25T19:43:23.309Z,18.89
2019-05-25T19:45:52.814Z,18.83
2019-05-25T19:48:22.276Z,18.78
2019-05-25T19:50:51.755Z,18.74
2019-05-25T19:53:21.364Z,18.66
2019-05-25T19:55:50.938Z,18.55
2019-05-25T19:58:20.476Z,18.40
2019-05-25T20:00:49.968Z,18.34
2019-05-25T20:03:19.949Z,18.29
2019-05-25T20:05:49.424Z,18.27
2019-05-25T20:08:19.236Z,18.19
2019-05-25T20:10:48.711Z,18.12
2019-05-25T20:13:18.486Z,18.13
2019-05-25T20:15:47.991Z,18.07
2019-05-25T20:18:17.458Z,18.02
2019-05-25T20:20:47.037Z,17.98
2019-05-25T20:23:16.713Z,17.94
2019-05-25T20:25:46.175Z,17.90
2019-05-25T20:28:15.855Z,17.82
2019-05-25T20:30:45.345Z,17.87
2019-05-25T20:33:26.879Z,17.78
2019-05-25T20:35:46.002Z,17.70
2019-05-25T20:38:15.951Z,17.68
2019-05-25T20:40:45.438Z,17.57
2019-05-25T20:43:14.906Z,17.46
2019-05-25T20:45:44.420Z,17.38
2019-05-25T20:48:13.893Z,17.37
2019-05-25T20:50:43.439Z,17.34
2019-05-25T20:53:13.123Z,17.29
2019-05-25T20:55:43.701Z,17.29
2019-05-25T20:58:13.186Z,17.33
2019-05-25T21:00:43.091Z,17.37
2019-05-25T21:03:12.592Z,17.29
2019-05-25T21:05:50.131Z,17.24
2019-05-25T21:08:13.433Z,17.18
2019-05-25T21:10:42.906Z,17.17
2019-05-25T21:13:12.405Z,17.14
2019-05-25T21:15:41.874Z,17.13
2019-05-25T21:18:11.364Z,17.09
2019-05-25T21:20:40.944Z,17.11
2019-05-25T21:23:10.421Z,17.15
2019-05-25T21:25:39.894Z,17.06
2019-05-25T21:28:09.464Z,17.02
2019-05-25T21:30:38.947Z,16.94
2019-05-25T21:33:08.404Z,16.89
2019-05-25T21:35:37.988Z,16.88
2019-05-25T21:38:07.455Z,16.93
2019-05-25T21:40:36.917Z,16.94
2019-05-25T21:43:06.420Z,16.89
2019-05-25T21:45:35.964Z,16.90
2019-05-25T21:48:05.540Z,16.89
2019-05-25T21:50:35.144Z,17.00
2019-05-25T21:53:04.652Z,17.01
2019-05-25T21:55:34.192Z,17.04
2019-05-25T21:58:03.763Z,17.03
2019-05-25T22:00:34.866Z,17.02
2019-05-25T22:03:04.341Z,17.02
2019-05-25T22:05:33.841Z,17.07
2019-05-25T22:08:03.307Z,17.03
2019-05-25T22:10:32.877Z,17.05
2019-05-25T22:13:02.397Z,17.04
2019-05-25T22:15:32.008Z,17.11
2019-05-25T22:18:01.519Z,17.10
2019-05-25T22:20:31.024Z,17.17
2019-05-25T22:23:00.803Z,17.17
2019-05-25T22:25:30.271Z,17.19
2019-05-25T22:28:00.094Z,17.15
2019-05-25T22:30:29.554Z,17.07
2019-05-25T22:32:58.975Z,17.09
2019-05-25T22:35:28.478Z,17.10
2019-05-25T22:37:57.943Z,17.11
2019-05-25T22:40:27.408Z,17.10
2019-05-25T22:42:56.914Z,17.01
2019-05-25T22:45:26.388Z,16.85
2019-05-25T22:47:56.023Z,16.81
2019-05-25T22:50:25.525Z,16.79
2019-05-25T22:52:55.202Z,16.76
2019-05-25T22:55:39.441Z,16.72
2019-05-25T22:58:09.776Z,16.65
2019-05-25T23:00:39.292Z,16.61
2019-05-25T23:03:08.766Z,16.61
2019-05-25T23:05:38.243Z,16.57
2019-05-25T23:08:07.736Z,16.54
2019-05-25T23:10:37.203Z,16.54
2019-05-25T23:13:06.686Z,16.47
2019-05-25T23:15:36.199Z,16.42
2019-05-25T23:18:05.746Z,16.40
2019-05-25T23:20:36.622Z,16.33
2019-05-25T23:23:06.452Z,16.28
2019-05-25T23:25:35.962Z,16.26
2019-05-25T23:28:05.534Z,16.22
2019-05-25T23:30:35.031Z,16.22
2019-05-25T23:33:04.501Z,16.23
2019-05-25T23:35:33.974Z,16.22
2019-05-25T23:38:04.010Z,16.21
2019-05-25T23:40:33.628Z,16.14
2019-05-25T23:43:03.094Z,16.12
2019-05-25T23:45:34.456Z,16.08
2019-05-25T23:48:03.931Z,16.02
2019-05-25T23:50:33.455Z,16.00
2019-05-25T23:53:02.980Z,15.97
2019-05-25T23:55:32.450Z,15.89
2019-05-25T23:58:01.917Z,15.84
